Terminal Aerodrome Forecast
Issued by NWS Upton, NY

Home | Current Version | Previous Version | Text Only | Print | Product List | Glossary On
Versions: 1 2 3 4 5 6 7 8 9 10 11 12 13 14 15 16 17 18 19 20 21 22 23 24 25
000
FTUS41 KOKX 301137
TAFEWR
TAF
KEWR 301137Z 3012/3118 21009KT P6SM VCSH SCT030 BKN090 BKN250
     FM301500 20013G20KT P6SM SCT050 BKN250
      TEMPO 3020/3022 3SM TSRA BKN030CB
     FM302200 23012KT 6SM -SHRA BR BKN040
     FM310000 24008KT P6SM SCT050 BKN080
     FM310400 28006KT P6SM FEW080
     FM310600 31006KT P6SM SKC
     FM311600 29011KT P6SM SKC=

USA.gov is the U.S. government's official web portal to all federal, state and local government web resources and services.